Time;durP1;ratioP1;P1;durP2;ratioP2;P2;SDS_P1;SDS_P2;PMS_P1;PMS_P2;Temp;Humidity;BMP_temperature;BMP_pressure;BME280_temperature;BME280_humidity;BME280_pressure;Samples;Min_cycle;Max_cycle;Signal;HPM_P1;HPM_P2
2022/01/09 00:02:06;;;;;;;12.73;8.13;;;;;;;5.15;100.00;98685.22;5096912;28;20093;-61
2022/01/09 00:04:31;;;;;;;12.85;7.97;;;;;;;5.19;100.00;98697.22;5097279;28;20047;-61
2022/01/09 00:06:57;;;;;;;12.55;9.13;;;;;;;5.18;100.00;98706.72;5100152;28;20030;-60
2022/01/09 00:09:22;;;;;;;15.30;10.07;;;;;;;5.20;100.00;98720.47;5099796;28;20032;-63
2022/01/09 00:11:47;;;;;;;17.35;10.70;;;;;;;5.27;100.00;98736.75;5096744;28;20036;-60
2022/01/09 00:14:12;;;;;;;17.48;9.43;;;;;;;5.26;100.00;98729.84;5096156;28;20051;-61
2022/01/09 00:16:38;;;;;;;7.28;5.65;;;;;;;5.28;100.00;98760.94;5096476;28;20020;-60
2022/01/09 00:19:03;;;;;;;6.85;4.70;;;;;;;5.22;100.00;98780.94;5096826;28;20032;-62
2022/01/09 00:21:28;;;;;;;8.57;4.57;;;;;;;5.20;100.00;98789.63;5096898;28;20340;-61
2022/01/09 00:23:54;;;;;;;6.13;3.63;;;;;;;5.20;100.00;98800.00;5096829;28;20043;-63
2022/01/09 00:26:19;;;;;;;5.78;3.30;;;;;;;5.14;100.00;98816.56;5078934;28;20385;-63
2022/01/09 00:28:44;;;;;;;8.48;3.42;;;;;;;5.09;100.00;98823.59;5097055;28;20036;-63
2022/01/09 00:31:09;;;;;;;8.15;3.75;;;;;;;5.01;100.00;98827.28;5097004;28;20358;-62
2022/01/09 00:33:35;;;;;;;10.13;3.35;;;;;;;5.05;100.00;98828.88;5096552;28;20024;-61
2022/01/09 00:36:00;;;;;;;8.10;3.00;;;;;;;5.01;100.00;98833.31;5096553;28;20032;-61
2022/01/09 00:38:26;;;;;;;11.63;3.50;;;;;;;5.00;100.00;98849.75;5096679;28;20178;-61
2022/01/09 00:40:51;;;;;;;12.10;3.58;;;;;;;4.94;100.00;98847.28;5096949;28;20153;-62
2022/01/09 00:43:16;;;;;;;19.15;4.13;;;;;;;4.92;100.00;98854.25;5097584;28;20445;-61
2022/01/09 00:45:41;;;;;;;26.10;4.07;;;;;;;4.96;100.00;98870.59;5096300;28;20093;-62
2022/01/09 00:48:09;;;;;;;22.95;4.30;;;;;;;4.94;100.00;98880.13;5096415;28;20039;-62
2022/01/09 00:50:36;;;;;;;32.42;5.15;;;;;;;4.89;100.00;98885.41;5095952;28;20028;-62
2022/01/09 00:53:06;;;;;;;27.90;5.05;;;;;;;4.84;100.00;98895.91;5096410;28;20090;-60
2022/01/09 00:55:31;;;;;;;37.20;5.72;;;;;;;4.83;100.00;98896.78;5096297;28;20111;-62
2022/01/09 00:57:57;;;;;;;35.40;5.57;;;;;;;4.82;100.00;98895.06;5095985;28;20060;-61
2022/01/09 01:00:23;;;;;;;44.03;5.60;;;;;;;4.81;100.00;98908.06;5096434;28;20073;-61
2022/01/09 01:02:48;;;;;;;33.72;4.60;;;;;;;4.80;100.00;98904.63;5096206;28;20440;-61
2022/01/09 01:05:14;;;;;;;42.75;5.95;;;;;;;4.76;100.00;98917.66;5096130;28;20028;-62
2022/01/09 01:07:39;;;;;;;34.63;5.53;;;;;;;4.73;100.00;98917.72;5096216;28;20097;-62
2022/01/09 01:10:04;;;;;;;41.92;6.90;;;;;;;4.78;100.00;98932.28;5096209;28;20431;-62
2022/01/09 01:12:30;;;;;;;45.67;6.20;;;;;;;4.76;100.00;98940.97;5096012;28;20056;-62
2022/01/09 01:14:56;;;;;;;41.22;6.60;;;;;;;4.73;100.00;98941.88;5095998;28;20044;-62
2022/01/09 01:17:22;;;;;;;37.58;6.30;;;;;;;4.71;100.00;98943.66;5095877;28;20333;-62
2022/01/09 01:19:48;;;;;;;39.30;7.07;;;;;;;4.72;100.00;98954.88;5095452;28;20430;-62
2022/01/09 01:22:15;;;;;;;34.75;5.80;;;;;;;4.70;100.00;98957.50;5095837;28;20020;-61
2022/01/09 01:24:41;;;;;;;38.97;6.78;;;;;;;4.63;100.00;98955.91;5095411;28;20373;-62
2022/01/09 01:27:07;;;;;;;30.05;5.53;;;;;;;4.63;100.00;98975.78;5095555;28;20447;-62
2022/01/09 01:29:34;;;;;;;36.08;5.50;;;;;;;4.65;100.00;98968.84;5095968;28;20112;-62
2022/01/09 01:31:59;;;;;;;35.50;5.88;;;;;;;4.60;100.00;98975.84;5095256;28;21294;-62
2022/01/09 01:34:24;;;;;;;31.92;5.88;;;;;;;4.54;100.00;98975.06;5095655;28;20402;-62
2022/01/09 01:36:50;;;;;;;33.70;5.90;;;;;;;4.60;100.00;98989.66;5095439;28;20043;-61
2022/01/09 01:39:15;;;;;;;44.22;6.07;;;;;;;4.55;100.00;98992.31;5095375;28;20502;-62
2022/01/09 01:41:40;;;;;;;36.85;6.07;;;;;;;4.57;100.00;99004.41;5095606;28;20080;-61
2022/01/09 01:44:11;;;;;;;37.35;6.75;;;;;;;4.61;100.00;99017.28;5095446;28;20442;-61
2022/01/09 01:46:37;;;;;;;41.17;6.00;;;;;;;4.62;100.00;99023.31;5094954;28;20036;-63
2022/01/09 01:49:03;;;;;;;41.17;6.70;;;;;;;4.57;100.00;99025.97;5095248;28;20177;-62
2022/01/09 01:51:28;;;;;;;41.65;6.50;;;;;;;4.58;100.00;99034.59;5095255;28;20032;-61
2022/01/09 01:53:55;;;;;;;37.70;6.28;;;;;;;4.62;100.00;99031.06;5095457;28;20035;-61
2022/01/09 01:56:22;;;;;;;35.03;6.10;;;;;;;4.60;100.00;99038.00;5094860;28;20055;-63
2022/01/09 01:58:49;;;;;;;43.08;6.15;;;;;;;4.62;100.00;99046.63;5095690;28;20031;-62
2022/01/09 02:01:14;;;;;;;44.38;6.75;;;;;;;4.64;100.00;99056.06;5095371;28;20043;-63
2022/01/09 02:03:40;;;;;;;45.58;7.15;;;;;;;4.62;100.00;99063.00;5095713;28;20036;-63
2022/01/09 02:06:06;;;;;;;46.03;7.38;;;;;;;4.54;100.00;99057.97;5095910;28;20059;-63
2022/01/09 02:08:32;;;;;;;52.78;7.47;;;;;;;4.62;100.00;99073.38;5095754;28;20028;-63
2022/01/09 02:10:57;;;;;;;54.05;6.80;;;;;;;4.68;100.00;99082.75;5095646;28;20036;-63
2022/01/09 02:13:23;;;;;;;45.13;7.63;;;;;;;4.69;100.00;99089.66;5095204;28;20044;-62
2022/01/09 02:15:49;;;;;;;41.55;7.60;;;;;;;4.71;100.00;99093.06;5095260;28;20036;-63
2022/01/09 02:18:18;;;;;;;62.80;8.43;;;;;;;4.72;100.00;99099.97;5095366;28;20024;-64
2022/01/09 02:20:44;;;;;;;65.13;8.63;;;;;;;4.73;100.00;99101.66;5095354;28;20032;-63
2022/01/09 02:23:12;;;;;;;47.50;8.90;;;;;;;4.76;100.00;99101.63;5095468;28;20053;-64
2022/01/09 02:25:38;;;;;;;56.88;7.95;;;;;;;4.74;100.00;99113.75;5095267;28;20032;-63
2022/01/09 02:28:04;;;;;;;58.15;9.05;;;;;;;4.75;100.00;99118.91;5095238;28;20024;-63
2022/01/09 02:30:33;;;;;;;50.60;8.00;;;;;;;4.70;100.00;99112.94;5094815;28;20035;-63
2022/01/09 02:33:00;;;;;;;43.40;7.95;;;;;;;4.73;100.00;99128.44;5094896;28;20368;-63
2022/01/09 02:35:26;;;;;;;51.45;8.77;;;;;;;4.76;100.00;99136.16;5095084;28;20043;-63
2022/01/09 02:37:51;;;;;;;58.95;8.30;;;;;;;4.73;100.00;99133.63;5095143;28;20036;-63
2022/01/09 02:40:16;;;;;;;52.80;8.80;;;;;;;4.75;100.00;99136.19;5095044;28;20039;-62
2022/01/09 02:42:42;;;;;;;50.22;7.72;;;;;;;4.75;100.00;99134.44;5095103;28;20059;-64
2022/01/09 02:45:08;;;;;;;46.40;7.20;;;;;;;4.64;100.00;99128.63;5094525;28;20366;-63
2022/01/09 02:47:34;;;;;;;41.47;6.57;;;;;;;4.74;100.00;99162.97;5094915;28;20028;-63
2022/01/09 02:50:10;;;;;;;35.92;6.88;;;;;;;4.76;100.00;99164.66;5095061;28;20118;-62
2022/01/09 02:52:48;;;;;;;38.70;6.40;;;;;;;4.74;100.00;99170.75;5094792;28;20424;-62
2022/01/09 02:55:15;;;;;;;42.08;6.40;;;;;;;4.68;100.00;99181.19;5094745;28;20055;-63
2022/01/09 02:57:46;;;;;;;37.85;5.72;;;;;;;4.67;100.00;99179.53;5094982;28;20024;-64
2022/01/09 03:00:23;;;;;;;46.10;6.47;;;;;;;4.68;100.00;99187.25;5094762;28;20115;-63
2022/01/09 03:02:49;;;;;;;44.78;5.72;;;;;;;4.66;100.00;99196.81;5094983;28;20047;-62
2022/01/09 03:05:15;;;;;;;46.75;6.35;;;;;;;4.66;100.00;99203.72;5094731;28;20376;-64
2022/01/09 03:07:42;;;;;;;41.50;5.28;;;;;;;4.66;100.00;99219.25;5094967;28;20047;-63
2022/01/09 03:10:09;;;;;;;34.22;5.43;;;;;;;4.65;100.00;99222.72;5094547;28;20032;-63
2022/01/09 03:12:36;;;;;;;39.13;5.47;;;;;;;4.62;100.00;99226.22;5094882;28;20031;-64
2022/01/09 03:15:03;;;;;;;32.17;5.05;;;;;;;4.59;100.00;99238.34;5095134;28;20358;-63
2022/01/09 03:17:28;;;;;;;29.92;5.25;;;;;;;4.53;100.00;99221.16;5095108;28;20325;-64
2022/01/09 03:19:54;;;;;;;30.33;4.72;;;;;;;4.47;100.00;99222.13;5094863;28;20036;-64
2022/01/09 03:22:19;;;;;;;33.95;5.03;;;;;;;4.53;100.00;99263.47;5094791;28;20176;-63
2022/01/09 03:24:44;;;;;;;21.98;4.10;;;;;;;4.50;100.00;99260.91;5094530;28;20113;-63
2022/01/09 03:27:10;;;;;;;40.30;5.28;;;;;;;4.46;100.00;99259.28;5094294;28;20032;-63
2022/01/09 03:29:36;;;;;;;34.40;4.82;;;;;;;4.41;100.00;99255.88;5094449;28;20059;-63
2022/01/09 03:32:01;;;;;;;23.13;4.93;;;;;;;4.41;100.00;99263.66;5094557;28;20435;-63
2022/01/09 03:34:27;;;;;;;28.58;4.35;;;;;;;4.39;100.00;99278.34;5094529;28;20435;-64
2022/01/09 03:36:52;;;;;;;26.52;4.70;;;;;;;4.37;100.00;99279.25;5094513;28;20032;-63
2022/01/09 03:39:18;;;;;;;27.20;4.32;;;;;;;4.37;100.00;99282.69;5093982;28;20024;-62
2022/01/09 03:41:43;;;;;;;31.58;4.47;;;;;;;4.37;100.00;99294.78;5094219;28;20062;-62
2022/01/09 03:44:08;;;;;;;26.05;4.60;;;;;;;4.36;100.00;99304.28;5094683;28;20032;-62
2022/01/09 03:46:33;;;;;;;28.70;4.68;;;;;;;4.31;100.00;99308.69;5094463;28;20053;-63
2022/01/09 03:48:59;;;;;;;26.27;4.28;;;;;;;4.29;100.00;99301.81;5097544;28;20036;-63
2022/01/09 03:51:26;;;;;;;23.58;4.18;;;;;;;4.31;100.00;99313.00;5098162;28;20097;-63
2022/01/09 03:53:52;;;;;;;31.10;4.38;;;;;;;4.23;100.00;99317.41;5098215;28;20051;-64
2022/01/09 03:56:17;;;;;;;30.50;4.68;;;;;;;4.28;100.00;99325.97;5097890;28;20032;-63
2022/01/09 03:58:43;;;;;;;25.85;4.43;;;;;;;4.24;100.00;99313.94;5098093;28;20343;-64
2022/01/09 04:01:08;;;;;;;31.30;4.25;;;;;;;4.27;100.00;99340.66;5098017;28;20202;-62
2022/01/09 04:03:34;;;;;;;31.45;4.20;;;;;;;4.30;100.00;99342.38;5097842;28;20050;-63
2022/01/09 04:06:00;;;;;;;21.38;3.90;;;;;;;4.26;100.00;99345.84;5097459;28;20351;-63
2022/01/09 04:08:26;;;;;;;28.48;3.85;;;;;;;4.25;100.00;99363.13;5097574;28;20120;-64
2022/01/09 04:10:51;;;;;;;26.42;4.03;;;;;;;4.22;100.00;99355.38;5097876;28;20484;-62
2022/01/09 04:13:16;;;;;;;25.98;3.63;;;;;;;4.17;100.00;99368.38;5097329;28;20052;-63
2022/01/09 04:15:47;;;;;;;29.95;4.28;;;;;;;4.10;100.00;99371.91;5097741;28;20059;-62
2022/01/09 04:18:14;;;;;;;21.67;4.13;;;;;;;4.13;100.00;99383.97;5097644;28;20115;-62
2022/01/09 04:20:40;;;;;;;22.70;3.90;;;;;;;4.09;100.00;99379.69;5097626;28;20377;-64
2022/01/09 04:23:05;;;;;;;24.33;3.67;;;;;;;4.10;100.00;99394.38;5097314;28;20036;-63
2022/01/09 04:25:30;;;;;;;28.23;3.83;;;;;;;4.09;100.00;99395.22;5097275;28;20032;-62
2022/01/09 04:27:55;;;;;;;26.33;3.80;;;;;;;4.14;100.00;99396.91;5097618;28;20032;-63
2022/01/09 04:30:21;;;;;;;27.02;3.75;;;;;;;4.10;100.00;99407.31;5097390;28;20049;-63
2022/01/09 04:32:46;;;;;;;27.73;3.83;;;;;;;4.10;100.00;99409.88;5097300;28;20086;-64
2022/01/09 04:35:12;;;;;;;21.55;3.10;;;;;;;4.11;100.00;99427.16;5097484;28;20442;-65
2022/01/09 04:37:38;;;;;;;17.42;3.03;;;;;;;4.14;100.00;99427.97;5097311;28;20047;-64
2022/01/09 04:40:08;;;;;;;25.40;3.80;;;;;;;4.08;100.00;99432.34;5097143;28;20089;-66
2022/01/09 04:42:57;;;;;;;18.25;3.72;;;;;;;4.05;100.00;99432.38;5097710;28;20028;-65
2022/01/09 04:45:20;;;;;;;28.05;4.00;;;;;;;4.05;100.00;99443.56;5096473;28;20059;-65
2022/01/09 04:47:47;;;;;;;18.40;3.70;;;;;;;4.05;100.00;99450.47;5097055;28;20415;-65
2022/01/09 04:50:21;;;;;;;26.25;4.03;;;;;;;4.04;100.00;99462.56;5096654;28;20305;-64
2022/01/09 04:52:47;;;;;;;20.75;3.20;;;;;;;3.96;100.00;99459.22;5097034;28;20444;-63
2022/01/09 04:55:13;;;;;;;17.73;3.65;;;;;;;3.99;100.00;99472.09;5097019;28;20110;-64
2022/01/09 04:57:39;;;;;;;24.50;3.50;;;;;;;4.03;100.00;99476.38;5097073;28;20031;-64
2022/01/09 05:00:06;;;;;;;16.10;3.58;;;;;;;3.99;100.00;99479.84;5096303;28;20504;-64
2022/01/09 05:02:31;;;;;;;22.35;3.67;;;;;;;3.98;100.00;99487.66;5096594;28;20085;-63
2022/01/09 05:04:56;;;;;;;20.00;3.58;;;;;;;3.97;100.00;99486.81;5096696;28;20106;-65
2022/01/09 05:07:22;;;;;;;23.40;3.45;;;;;;;3.94;100.00;99489.41;5097035;28;20438;-65
2022/01/09 05:09:47;;;;;;;21.15;3.53;;;;;;;3.96;100.00;99505.78;5096428;28;20036;-65
2022/01/09 05:12:12;;;;;;;21.92;3.58;;;;;;;3.95;100.00;99506.66;5096586;28;20034;-63
2022/01/09 05:14:37;;;;;;;18.95;3.47;;;;;;;3.98;100.00;99518.72;5095894;28;20048;-64
2022/01/09 05:17:03;;;;;;;22.70;3.30;;;;;;;4.03;100.00;99522.09;5096554;28;20028;-64
2022/01/09 05:19:30;;;;;;;19.35;2.97;;;;;;;4.06;100.00;99524.69;5096248;28;20032;-65
2022/01/09 05:21:57;;;;;;;15.18;3.30;;;;;;;4.14;100.00;99544.47;5096508;28;20443;-64
2022/01/09 05:24:22;;;;;;;24.55;4.05;;;;;;;4.14;100.00;99544.47;5096277;28;20024;-64
2022/01/09 05:26:48;;;;;;;18.65;3.17;;;;;;;4.16;100.00;99555.63;5095741;28;20042;-62
2022/01/09 05:29:13;;;;;;;21.67;3.45;;;;;;;4.17;100.00;99564.28;5096318;28;20043;-63
2022/01/09 05:31:39;;;;;;;20.38;3.33;;;;;;;4.08;100.00;99560.03;5096160;28;20040;-64
2022/01/09 05:34:04;;;;;;;21.45;3.63;;;;;;;4.06;100.00;99573.84;5095976;28;20522;-63
2022/01/09 05:36:30;;;;;;;21.77;3.55;;;;;;;3.92;100.00;99548.09;5096359;28;20108;-64
2022/01/09 05:38:55;;;;;;;19.90;3.85;;;;;;;4.03;100.00;99579.06;5096335;28;20093;-64
2022/01/09 05:41:20;;;;;;;23.80;3.72;;;;;;;3.98;100.00;99575.66;5095791;28;20028;-63
2022/01/09 05:43:46;;;;;;;26.17;4.28;;;;;;;4.01;100.00;99583.38;5096065;28;20028;-65
2022/01/09 05:46:11;;;;;;;20.95;3.45;;;;;;;4.00;100.00;99581.66;5095836;28;20049;-64
2022/01/09 05:48:37;;;;;;;19.35;3.88;;;;;;;3.95;100.00;99584.31;5096162;28;20040;-64
2022/01/09 05:51:02;;;;;;;23.33;3.90;;;;;;;3.95;100.00;99588.63;5095490;28;20035;-62
2022/01/09 05:53:27;;;;;;;24.65;4.13;;;;;;;3.98;100.00;99594.63;5095662;28;20157;-62
2022/01/09 05:55:52;;;;;;;17.67;4.32;;;;;;;3.95;100.00;99586.91;5095369;28;20104;-63
2022/01/09 05:58:18;;;;;;;29.02;4.10;;;;;;;3.95;100.00;99592.06;5095872;28;20043;-62
2022/01/09 06:00:43;;;;;;;19.25;3.75;;;;;;;3.93;100.00;99590.34;5095650;28;20039;-63
2022/01/09 06:03:08;;;;;;;23.45;4.30;;;;;;;3.94;100.00;99592.06;5095562;28;20046;-63
2022/01/09 06:05:34;;;;;;;28.02;4.35;;;;;;;3.96;100.00;99604.13;5095140;28;20100;-63
2022/01/09 06:07:59;;;;;;;23.80;4.40;;;;;;;3.91;100.00;99605.03;5095984;28;20039;-63
2022/01/09 06:10:24;;;;;;;21.48;4.40;;;;;;;3.90;100.00;99609.34;5095197;28;20182;-64
2022/01/09 06:12:50;;;;;;;23.10;4.38;;;;;;;3.87;100.00;99609.34;5094612;28;20490;-62
2022/01/09 06:15:15;;;;;;;24.27;4.43;;;;;;;3.89;100.00;99617.13;5095634;28;20043;-63
2022/01/09 06:17:42;;;;;;;22.73;3.83;;;;;;;3.88;100.00;99608.50;5095257;28;20061;-64
2022/01/09 06:20:09;;;;;;;27.42;3.70;;;;;;;3.87;100.00;99613.66;5095429;28;20035;-65
2022/01/09 06:22:34;;;;;;;26.17;4.43;;;;;;;3.83;100.00;99623.19;5095384;28;20032;-64
2022/01/09 06:24:59;;;;;;;26.42;4.18;;;;;;;3.81;100.00;99625.78;5095380;28;20113;-63
2022/01/09 06:27:25;;;;;;;22.73;4.47;;;;;;;3.80;100.00;99636.16;5095529;28;20024;-65
2022/01/09 06:29:51;;;;;;;21.70;3.85;;;;;;;3.81;100.00;99636.13;5095137;28;20039;-65
2022/01/09 06:32:16;;;;;;;22.17;4.28;;;;;;;3.82;100.00;99652.50;5094986;28;20439;-63
2022/01/09 06:34:42;;;;;;;18.42;3.85;;;;;;;3.80;100.00;99633.56;5095227;28;20165;-64
2022/01/09 06:37:08;;;;;;;19.15;3.97;;;;;;;3.80;100.00;99642.19;5095047;28;20359;-63
2022/01/09 06:39:33;;;;;;;18.52;3.63;;;;;;;3.78;100.00;99649.09;5095147;28;20028;-66
2022/01/09 06:41:59;;;;;;;23.10;3.70;;;;;;;3.80;100.00;99646.50;5095058;28;20036;-64
2022/01/09 06:44:25;;;;;;;22.67;3.70;;;;;;;3.81;100.00;99661.13;5095217;28;20035;-63
2022/01/09 06:46:50;;;;;;;22.08;3.83;;;;;;;3.79;100.00;99661.16;5094809;28;20020;-65
2022/01/09 06:49:15;;;;;;;14.27;3.45;;;;;;;3.78;100.00;99664.63;5094871;28;20435;-63
2022/01/09 06:51:41;;;;;;;22.50;4.32;;;;;;;3.80;100.00;99664.63;5095038;28;20052;-63
2022/01/09 06:54:06;;;;;;;20.35;4.28;;;;;;;3.78;100.00;99668.94;5094822;28;20059;-65
2022/01/09 06:56:31;;;;;;;19.20;3.30;;;;;;;3.84;100.00;99674.91;5095016;28;20032;-64
2022/01/09 06:58:56;;;;;;;17.38;3.85;;;;;;;3.85;100.00;99683.53;5095130;28;20059;-64
2022/01/09 07:01:22;;;;;;;17.35;3.33;;;;;;;3.85;100.00;99688.72;5094742;28;20043;-64
2022/01/09 07:03:47;;;;;;;23.42;3.53;;;;;;;3.85;100.00;99687.00;5094755;28;20324;-63
2022/01/09 07:06:12;;;;;;;20.52;3.78;;;;;;;3.87;100.00;99697.34;5094732;28;20028;-63
2022/01/09 07:08:37;;;;;;;22.02;4.05;;;;;;;3.87;100.00;99699.06;5095159;28;20027;-65
2022/01/09 07:11:04;;;;;;;22.80;3.47;;;;;;;3.92;100.00;99700.78;5094720;28;20039;-63
2022/01/09 07:13:30;;;;;;;17.20;2.83;;;;;;;3.90;100.00;99701.66;5094774;28;20062;-64
2022/01/09 07:15:55;;;;;;;19.75;3.50;;;;;;;3.88;100.00;99705.97;5094710;28;20107;-63
2022/01/09 07:18:21;;;;;;;19.58;3.30;;;;;;;3.82;100.00;99710.28;5094683;28;20843;-61
2022/01/09 07:20:47;;;;;;;20.38;3.38;;;;;;;3.81;100.00;99713.75;5094726;28;20035;-66
2022/01/09 07:23:12;;;;;;;18.27;3.53;;;;;;;3.82;100.00;99731.00;5108496;28;20096;-66
2022/01/09 07:25:37;;;;;;;19.20;3.55;;;;;;;3.82;100.00;99733.56;5118954;28;20028;-64
2022/01/09 07:28:03;;;;;;;24.30;3.90;;;;;;;3.80;100.00;99731.91;5111587;28;20106;-66
2022/01/09 07:30:29;;;;;;;15.80;3.35;;;;;;;3.84;100.00;99737.03;5105994;28;20036;-64
2022/01/09 07:32:55;;;;;;;23.55;3.35;;;;;;;3.87;100.00;99738.75;5100157;28;20088;-65
2022/01/09 07:35:20;;;;;;;14.85;2.70;;;;;;;3.69;100.00;99738.81;5118664;28;20027;-63
2022/01/09 07:37:46;;;;;;;13.77;3.03;;;;;;;3.64;100.00;99741.41;5118845;28;20168;-65
2022/01/09 07:40:12;;;;;;;13.13;2.78;;;;;;;3.61;100.00;99746.63;5118945;28;20358;-63
2022/01/09 07:42:37;;;;;;;19.08;3.42;;;;;;;3.62;100.00;99743.16;5118950;28;20027;-63
2022/01/09 07:45:06;;;;;;;21.05;3.33;;;;;;;3.59;100.00;99756.09;5118772;28;20058;-64
2022/01/09 07:47:35;;;;;;;17.40;3.67;;;;;;;3.60;100.00;99750.06;5118522;28;20035;-64
2022/01/09 07:50:00;;;;;;;18.17;3.20;;;;;;;3.64;100.00;99764.69;5118564;28;20035;-64
2022/01/09 07:52:26;;;;;;;15.93;3.00;;;;;;;3.61;100.00;99775.06;5118835;28;20331;-65
2022/01/09 07:54:51;;;;;;;18.77;3.05;;;;;;;3.52;100.00;99769.91;5118468;28;20400;-63
2022/01/09 07:57:17;;;;;;;13.85;3.13;;;;;;;3.37;100.00;99744.94;5118589;28;20168;-64
2022/01/09 07:59:42;;;;;;;12.82;2.80;;;;;;;3.58;100.00;99792.31;5118403;28;20031;-64
2022/01/09 08:02:09;;;;;;;15.07;3.05;;;;;;;3.64;100.00;99784.53;5118158;28;20458;-65
2022/01/09 08:04:34;;;;;;;16.05;2.92;;;;;;;3.62;100.00;99781.09;5118202;28;20027;-64
2022/01/09 08:06:59;;;;;;;13.43;3.08;;;;;;;3.61;100.00;99792.31;5118342;28;20473;-64
2022/01/09 08:09:24;;;;;;;13.10;2.75;;;;;;;3.66;100.00;99794.00;5118200;28;20027;-65
2022/01/09 08:11:49;;;;;;;12.05;2.70;;;;;;;3.53;100.00;99789.72;5117825;28;20042;-64
2022/01/09 08:14:15;;;;;;;16.95;2.40;;;;;;;3.57;100.00;99795.75;5118448;28;20055;-63
2022/01/09 08:16:40;;;;;;;13.68;2.88;;;;;;;3.56;100.00;99802.66;5118173;28;20039;-66
2022/01/09 08:19:06;;;;;;;16.58;2.47;;;;;;;3.60;100.00;99812.16;5117629;28;20024;-64
2022/01/09 08:21:31;;;;;;;12.00;2.13;;;;;;;3.61;100.00;99813.00;5117957;28;20102;-65
2022/01/09 08:23:56;;;;;;;14.93;2.60;;;;;;;3.69;100.00;99816.41;5117860;28;20019;-63
2022/01/09 08:26:22;;;;;;;10.07;2.38;;;;;;;3.75;100.00;99825.03;5117892;28;20028;-63
2022/01/09 08:28:48;;;;;;;12.48;3.00;;;;;;;3.81;100.00;99821.56;5117723;28;20074;-65
2022/01/09 08:31:17;;;;;;;9.07;2.35;;;;;;;3.88;100.00;99833.63;5117661;28;20028;-65
2022/01/09 08:33:43;;;;;;;14.13;2.90;;;;;;;3.87;100.00;99833.63;5116677;28;20024;-64
2022/01/09 08:36:09;;;;;;;17.33;2.80;;;;;;;3.88;100.00;99828.47;5117132;28;20115;-63
2022/01/09 08:38:34;;;;;;;13.05;2.63;;;;;;;3.95;100.00;99829.31;5117859;28;20055;-66
2022/01/09 08:41:00;;;;;;;12.38;2.92;;;;;;;3.90;100.00;99823.28;5117566;28;20032;-65
2022/01/09 08:43:25;;;;;;;15.00;2.95;;;;;;;4.02;100.00;99836.16;5117713;28;20027;-64
2022/01/09 08:45:51;;;;;;;18.10;3.20;;;;;;;4.08;100.00;99836.16;5117521;28;20027;-64
2022/01/09 08:48:17;;;;;;;13.13;2.75;;;;;;;4.12;100.00;99845.66;5117468;28;20028;-65
2022/01/09 08:50:43;;;;;;;12.00;2.78;;;;;;;4.05;100.00;99844.78;5117302;28;20032;-64
2022/01/09 08:53:08;;;;;;;12.43;2.65;;;;;;;4.07;100.00;99855.16;5117183;28;20089;-59
2022/01/09 08:55:34;;;;;;;12.57;2.70;;;;;;;4.02;100.00;99856.88;5117189;28;20028;-66
2022/01/09 08:57:59;;;;;;;16.73;2.72;;;;;;;3.91;100.00;99856.91;5117291;28;20517;-66
2022/01/09 09:00:26;;;;;;;12.95;2.78;;;;;;;3.92;100.00;99875.91;5116575;28;20076;-67
2022/01/09 09:02:51;;;;;;;14.40;2.80;;;;;;;3.90;100.00;99857.78;5117285;28;20035;-65
2022/01/09 09:05:16;;;;;;;15.85;4.00;;;;;;;4.02;100.00;99864.66;5116789;28;20390;-65
2022/01/09 09:07:42;;;;;;;13.02;3.55;;;;;;;4.12;100.00;99868.94;5116911;28;20034;-65
2022/01/09 09:10:08;;;;;;;14.60;2.65;;;;;;;4.11;100.00;99867.22;5108156;28;20078;-67
2022/01/09 09:12:33;;;;;;;16.85;3.00;;;;;;;4.19;100.00;99873.22;5107199;28;20024;-66
2022/01/09 09:15:00;;;;;;;20.63;3.67;;;;;;;4.47;100.00;99887.81;5104870;28;20062;-66
2022/01/09 09:17:26;;;;;;;15.15;3.10;;;;;;;4.75;100.00;99890.25;5105773;28;20032;-68
2022/01/09 09:19:52;;;;;;;18.10;3.42;;;;;;;4.85;100.00;99895.38;5107078;28;20040;-66
2022/01/09 09:22:17;;;;;;;14.95;3.60;;;;;;;4.88;100.00;99897.09;5105233;28;20047;-65
2022/01/09 09:24:42;;;;;;;15.02;3.20;;;;;;;4.87;100.00;99909.19;5105412;28;20432;-64
2022/01/09 09:27:08;;;;;;;16.88;2.83;;;;;;;4.87;100.00;99913.50;5105211;28;20118;-65
2022/01/09 09:29:33;;;;;;;14.30;3.20;;;;;;;4.85;100.00;99905.75;5106883;28;20041;-65
2022/01/09 09:31:59;;;;;;;17.65;3.63;;;;;;;4.83;100.00;99898.88;5105159;28;20081;-66
2022/01/09 09:34:24;;;;;;;18.13;4.13;;;;;;;4.87;100.00;99908.31;5105102;28;20077;-67
2022/01/09 09:36:51;;;;;;;16.20;3.33;;;;;;;4.90;100.00;99911.78;5106666;28;20106;-61
2022/01/09 09:39:17;;;;;;;18.65;3.65;;;;;;;4.97;100.00;99919.53;5105029;28;20398;-65
2022/01/09 09:41:42;;;;;;;15.63;3.05;;;;;;;5.02;100.00;99928.16;5110366;28;20085;-65
2022/01/09 09:44:09;;;;;;;16.83;3.10;;;;;;;5.15;100.00;99917.69;5116334;28;20470;-64
2022/01/09 09:46:36;;;;;;;19.45;3.13;;;;;;;5.32;100.00;99921.91;5115809;28;20023;-66
2022/01/09 09:49:01;;;;;;;17.58;2.80;;;;;;;5.31;100.00;99936.59;5116011;28;20407;-66
2022/01/09 09:51:30;;;;;;;15.27;3.50;;;;;;;5.26;100.00;99940.94;5116237;28;20039;-65
2022/01/09 09:53:58;;;;;;;18.52;3.17;;;;;;;5.17;100.00;99956.59;5116310;28;20024;-58
2022/01/09 09:56:24;;;;;;;14.30;3.90;;;;;;;4.94;100.00;99956.69;5115965;28;20024;-64
2022/01/09 09:58:50;;;;;;;14.13;3.00;;;;;;;4.76;100.00;99951.59;5115756;28;20046;-63
2022/01/09 10:01:27;;;;;;;14.32;3.45;;;;;;;4.55;100.00;99940.44;5115854;28;20027;-62
2022/01/09 10:04:05;;;;;;;13.52;2.78;;;;;;;4.50;100.00;99946.53;5115563;28;20027;-62
2022/01/09 10:06:34;;;;;;;14.20;3.03;;;;;;;4.56;100.00;99951.66;5115920;28;20023;-62
2022/01/09 10:09:21;;;;;;;14.25;3.05;;;;;;;4.59;100.00;99954.25;5115372;28;20039;-63
2022/01/09 10:12:00;;;;;;;16.67;2.72;;;;;;;4.62;100.00;99958.56;5116105;28;20105;-63
2022/01/09 10:14:29;;;;;;;17.48;3.35;;;;;;;4.67;100.00;99957.69;5116076;28;20048;-62
2022/01/09 10:17:13;;;;;;;20.88;3.67;;;;;;;4.77;100.00;99956.78;5115423;28;20128;-63
2022/01/09 10:19:58;;;;;;;18.27;3.75;;;;;;;5.01;100.00;99958.41;5115786;28;20028;-63
2022/01/09 10:22:29;;;;;;;16.38;3.42;;;;;;;5.18;100.00;99956.56;5115246;28;20062;-63
2022/01/09 10:24:58;;;;;;;13.88;3.88;;;;;;;5.20;100.00;99962.59;5115799;28;20031;-62
2022/01/09 10:27:27;;;;;;;15.27;3.38;;;;;;;5.31;100.00;99972.06;5115557;28;20019;-64
2022/01/09 10:29:54;;;;;;;18.38;3.55;;;;;;;5.39;100.00;99965.94;5115625;28;20027;-63
2022/01/09 10:32:20;;;;;;;15.35;3.47;;;;;;;5.45;100.00;99959.84;5115320;28;20039;-63
2022/01/09 10:35:16;;;;;;;23.85;3.92;;;;;;;5.48;100.00;99959.84;5115480;28;20303;-64
2022/01/09 10:37:48;;;;;;;16.33;3.72;;;;;;;5.54;100.00;99965.00;5115317;28;20028;-66
2022/01/09 10:40:28;;;;;;;;;;;;;;;5.67;100.00;99974.41;5115916;28;20102;-66
2022/01/09 10:43:09;;;;;;;18.08;3.60;;;;;;;5.71;100.00;99983.03;5115179;28;19916;-66
2022/01/09 10:45:41;;;;;;;17.27;3.87;;;;;;;5.75;100.00;99976.91;5115130;28;20093;-66
2022/01/09 10:48:18;;;;;;;21.40;3.47;;;;;;;5.75;99.81;99970.00;5115780;28;20277;-65
2022/01/09 10:50:45;;;;;;;18.33;3.40;;;;;;;5.85;100.00;99979.44;5115295;28;20043;-66
2022/01/09 10:53:29;;;;;;;16.15;3.38;;;;;;;5.80;100.00;99957.00;5115628;28;20035;-67
2022/01/09 10:56:08;;;;;;;19.80;3.90;;;;;;;5.91;99.29;99979.41;5111667;28;20027;-65
2022/01/09 10:58:36;;;;;;;14.13;3.50;;;;;;;5.89;99.86;99977.69;5110292;28;20039;-66
2022/01/09 11:01:14;;;;;;;22.50;4.43;;;;;;;5.91;100.00;99987.19;5118902;27;20521;-65
2022/01/09 11:03:45;;;;;;;16.77;3.90;;;;;;;6.02;98.43;99987.13;5118636;28;20047;-65
2022/01/09 11:06:10;;;;;;;16.85;4.35;;;;;;;6.15;100.00;99987.88;5119011;28;20039;-66
2022/01/09 11:08:37;;;;;;;15.98;4.40;;;;;;;6.37;99.81;99981.59;5119416;28;20084;-65
2022/01/09 11:11:07;;;;;;;17.17;4.05;;;;;;;6.63;99.18;99989.97;5119294;28;20050;-65
2022/01/09 11:13:36;;;;;;;14.05;3.03;;;;;;;6.86;95.87;99986.25;5118791;28;20052;-66
2022/01/09 11:18:46;;;;;;;14.70;3.50;;;;;;;7.01;95.21;99982.59;5119009;28;20215;-65
2022/01/09 11:21:13;;;;;;;17.90;3.05;;;;;;;6.82;94.86;99990.63;5101014;28;20089;-66
2022/01/09 11:23:58;;;;;;;15.45;3.33;;;;;;;6.74;95.10;99986.41;5118899;28;20605;-65
2022/01/09 11:26:32;;;;;;;19.48;3.42;;;;;;;6.92;95.06;100002.66;5118591;28;20027;-64
2022/01/09 11:28:57;;;;;;;14.18;2.85;;;;;;;6.94;92.33;100005.19;5118820;28;20031;-66